sensor_id;sensor_type;location;lat;lon;timestamp;pressure;altitude;pressure_sealevel;temperature;humidity
56038;BME280;41907;47.848;9.000;2022-08-03T00:01:16;95831.44;;;19.18;100.00
56038;BME280;41907;47.848;9.000;2022-08-03T00:03:41;95836.91;;;19.21;100.00
56038;BME280;41907;47.848;9.000;2022-08-03T00:06:06;95838.91;;;19.24;100.00
56038;BME280;41907;47.848;9.000;2022-08-03T00:08:32;95832.75;;;19.27;100.00
56038;BME280;41907;47.848;9.000;2022-08-03T00:10:57;95823.81;;;19.23;100.00
56038;BME280;41907;47.848;9.000;2022-08-03T00:13:24;95828.81;;;19.21;100.00
56038;BME280;41907;47.848;9.000;2022-08-03T00:15:49;95833.84;;;19.23;100.00
56038;BME280;41907;47.848;9.000;2022-08-03T00:18:15;95833.00;;;19.19;100.00
56038;BME280;41907;47.848;9.000;2022-08-03T00:20:40;95824.53;;;19.20;100.00
56038;BME280;41907;47.848;9.000;2022-08-03T00:23:06;95832.66;;;19.20;100.00
56038;BME280;41907;47.848;9.000;2022-08-03T00:25:35;95838.38;;;19.15;100.00
56038;BME280;41907;47.848;9.000;2022-08-03T00:28:01;95824.88;;;19.19;100.00
56038;BME280;41907;47.848;9.000;2022-08-03T00:30:27;95826.88;;;19.22;99.43
56038;BME280;41907;47.848;9.000;2022-08-03T00:32:53;95824.84;;;19.15;99.65
56038;BME280;41907;47.848;9.000;2022-08-03T00:35:18;95821.34;;;19.15;99.85
56038;BME280;41907;47.848;9.000;2022-08-03T00:37:43;95822.91;;;19.16;99.83
56038;BME280;41907;47.848;9.000;2022-08-03T00:40:11;95823.75;;;19.20;99.53
56038;BME280;41907;47.848;9.000;2022-08-03T00:45:11;95818.34;;;19.20;99.00
56038;BME280;41907;47.848;9.000;2022-08-03T00:47:37;95813.31;;;19.41;97.78
56038;BME280;41907;47.848;9.000;2022-08-03T00:50:02;95817.56;;;19.42;95.58
56038;BME280;41907;47.848;9.000;2022-08-03T00:52:28;95818.06;;;19.48;95.49
56038;BME280;41907;47.848;9.000;2022-08-03T00:54:53;95814.91;;;19.46;95.04
56038;BME280;41907;47.848;9.000;2022-08-03T00:57:18;95820.38;;;19.26;96.27
56038;BME280;41907;47.848;9.000;2022-08-03T00:59:44;95816.59;;;19.08;98.01
56038;BME280;41907;47.848;9.000;2022-08-03T01:02:10;95805.66;;;19.01;98.79
56038;BME280;41907;47.848;9.000;2022-08-03T01:04:35;95823.94;;;18.88;99.54
56038;BME280;41907;47.848;9.000;2022-08-03T01:07:26;95819.28;;;18.85;100.00
56038;BME280;41907;47.848;9.000;2022-08-03T01:10:01;95818.06;;;18.83;100.00
56038;BME280;41907;47.848;9.000;2022-08-03T01:12:51;95810.84;;;18.68;100.00
56038;BME280;41907;47.848;9.000;2022-08-03T01:18:29;95807.94;;;18.57;100.00
56038;BME280;41907;47.848;9.000;2022-08-03T01:20:57;95812.88;;;18.55;100.00
56038;BME280;41907;47.848;9.000;2022-08-03T01:23:36;95808.19;;;18.52;100.00
56038;BME280;41907;47.848;9.000;2022-08-03T01:32:14;95811.75;;;18.37;100.00
56038;BME280;41907;47.848;9.000;2022-08-03T01:34:46;95814.34;;;18.33;100.00
56038;BME280;41907;47.848;9.000;2022-08-03T01:37:15;95810.09;;;18.32;100.00
56038;BME280;41907;47.848;9.000;2022-08-03T01:39:44;95801.94;;;18.29;100.00
56038;BME280;41907;47.848;9.000;2022-08-03T01:42:10;95802.97;;;18.24;100.00
56038;BME280;41907;47.848;9.000;2022-08-03T01:44:40;95807.75;;;18.31;100.00
56038;BME280;41907;47.848;9.000;2022-08-03T01:47:07;95805.34;;;18.26;100.00
56038;BME280;41907;47.848;9.000;2022-08-03T01:49:37;95807.59;;;18.23;100.00
56038;BME280;41907;47.848;9.000;2022-08-03T01:52:04;95811.59;;;18.10;100.00
56038;BME280;41907;47.848;9.000;2022-08-03T01:54:40;95802.13;;;18.01;100.00
56038;BME280;41907;47.848;9.000;2022-08-03T01:57:07;95801.25;;;17.97;100.00
56038;BME280;41907;47.848;9.000;2022-08-03T01:59:35;95800.25;;;18.05;100.00
56038;BME280;41907;47.848;9.000;2022-08-03T02:02:03;95800.16;;;18.17;100.00
56038;BME280;41907;47.848;9.000;2022-08-03T02:04:29;95802.41;;;18.15;100.00
56038;BME280;41907;47.848;9.000;2022-08-03T02:06:56;95803.63;;;18.17;100.00
56038;BME280;41907;47.848;9.000;2022-08-03T02:09:24;95793.97;;;18.16;100.00
56038;BME280;41907;47.848;9.000;2022-08-03T02:11:52;95800.00;;;18.10;100.00
56038;BME280;41907;47.848;9.000;2022-08-03T02:14:19;95799.06;;;18.02;100.00
56038;BME280;41907;47.848;9.000;2022-08-03T02:16:45;95806.84;;;17.88;100.00
56038;BME280;41907;47.848;9.000;2022-08-03T02:19:12;95798.31;;;17.86;100.00
56038;BME280;41907;47.848;9.000;2022-08-03T02:21:39;95799.47;;;18.04;100.00
56038;BME280;41907;47.848;9.000;2022-08-03T02:24:06;95810.00;;;18.09;100.00
56038;BME280;41907;47.848;9.000;2022-08-03T02:26:34;95799.78;;;17.99;100.00
56038;BME280;41907;47.848;9.000;2022-08-03T02:29:04;95797.78;;;17.96;100.00
56038;BME280;41907;47.848;9.000;2022-08-03T02:31:33;95802.13;;;18.01;100.00
56038;BME280;41907;47.848;9.000;2022-08-03T02:34:05;95803.16;;;17.96;100.00
56038;BME280;41907;47.848;9.000;2022-08-03T02:36:36;95795.75;;;17.93;100.00
56038;BME280;41907;47.848;9.000;2022-08-03T02:39:03;95797.00;;;17.96;100.00
56038;BME280;41907;47.848;9.000;2022-08-03T02:41:33;95798.06;;;17.91;100.00
56038;BME280;41907;47.848;9.000;2022-08-03T02:44:01;95794.56;;;17.91;100.00
56038;BME280;41907;47.848;9.000;2022-08-03T02:46:31;95788.66;;;17.85;100.00
56038;BME280;41907;47.848;9.000;2022-08-03T02:49:00;95791.63;;;17.80;100.00
56038;BME280;41907;47.848;9.000;2022-08-03T02:51:29;95792.34;;;17.77;100.00
56038;BME280;41907;47.848;9.000;2022-08-03T02:53:57;95793.75;;;17.71;100.00
56038;BME280;41907;47.848;9.000;2022-08-03T02:56:24;95786.69;;;17.66;100.00
56038;BME280;41907;47.848;9.000;2022-08-03T02:58:51;95784.53;;;17.72;100.00
56038;BME280;41907;47.848;9.000;2022-08-03T03:01:27;95792.19;;;17.70;100.00
56038;BME280;41907;47.848;9.000;2022-08-03T03:03:54;95790.28;;;17.70;100.00
56038;BME280;41907;47.848;9.000;2022-08-03T03:06:21;95791.19;;;17.78;100.00
56038;BME280;41907;47.848;9.000;2022-08-03T03:08:47;95782.69;;;17.76;100.00
56038;BME280;41907;47.848;9.000;2022-08-03T03:11:14;95779.03;;;17.68;100.00
56038;BME280;41907;47.848;9.000;2022-08-03T03:13:42;95780.25;;;17.71;100.00
56038;BME280;41907;47.848;9.000;2022-08-03T03:16:11;95787.22;;;17.72;100.00
56038;BME280;41907;47.848;9.000;2022-08-03T03:18:37;95778.06;;;17.61;100.00
56038;BME280;41907;47.848;9.000;2022-08-03T03:21:03;95784.59;;;17.60;100.00
56038;BME280;41907;47.848;9.000;2022-08-03T03:23:29;95789.75;;;17.65;100.00
56038;BME280;41907;47.848;9.000;2022-08-03T03:25:56;95793.13;;;17.62;100.00
56038;BME280;41907;47.848;9.000;2022-08-03T03:28:23;95796.78;;;17.69;100.00
56038;BME280;41907;47.848;9.000;2022-08-03T03:30:50;95790.97;;;17.67;100.00
56038;BME280;41907;47.848;9.000;2022-08-03T03:33:16;95786.69;;;17.66;100.00
56038;BME280;41907;47.848;9.000;2022-08-03T03:35:42;95796.78;;;17.69;100.00
56038;BME280;41907;47.848;9.000;2022-08-03T03:38:09;95801.69;;;17.64;100.00
56038;BME280;41907;47.848;9.000;2022-08-03T03:40:35;95796.94;;;17.61;100.00
56038;BME280;41907;47.848;9.000;2022-08-03T03:43:02;95789.91;;;17.56;100.00
56038;BME280;41907;47.848;9.000;2022-08-03T03:45:29;95791.66;;;17.48;100.00
56038;BME280;41907;47.848;9.000;2022-08-03T03:47:55;95795.13;;;17.49;100.00
56038;BME280;41907;47.848;9.000;2022-08-03T03:50:21;95801.41;;;17.37;100.00
56038;BME280;41907;47.848;9.000;2022-08-03T03:52:47;95789.22;;;17.28;100.00
56038;BME280;41907;47.848;9.000;2022-08-03T03:55:16;95794.72;;;17.16;100.00
56038;BME280;41907;47.848;9.000;2022-08-03T03:57:42;95808.44;;;17.10;100.00
56038;BME280;41907;47.848;9.000;2022-08-03T04:00:08;95804.72;;;17.15;100.00
56038;BME280;41907;47.848;9.000;2022-08-03T04:02:34;95802.09;;;17.19;100.00
56038;BME280;41907;47.848;9.000;2022-08-03T04:04:59;95795.91;;;17.18;100.00
56038;BME280;41907;47.848;9.000;2022-08-03T04:08:15;95800.97;;;17.20;100.00
56038;BME280;41907;47.848;9.000;2022-08-03T04:11:05;95797.31;;;17.28;100.00
56038;BME280;41907;47.848;9.000;2022-08-03T04:13:39;95802.19;;;17.22;100.00
56038;BME280;41907;47.848;9.000;2022-08-03T04:16:08;95795.25;;;17.21;100.00
56038;BME280;41907;47.848;9.000;2022-08-03T04:18:36;95797.69;;;17.26;100.00
56038;BME280;41907;47.848;9.000;2022-08-03T04:21:05;95797.50;;;17.35;100.00
56038;BME280;41907;47.848;9.000;2022-08-03T04:23:34;95809.84;;;17.36;100.00
56038;BME280;41907;47.848;9.000;2022-08-03T04:26:03;95806.97;;;17.44;100.00
56038;BME280;41907;47.848;9.000;2022-08-03T04:28:31;95804.78;;;17.50;100.00
56038;BME280;41907;47.848;9.000;2022-08-03T04:30:58;95798.78;;;17.57;100.00
56038;BME280;41907;47.848;9.000;2022-08-03T04:33:25;95797.75;;;17.61;100.00
56038;BME280;41907;47.848;9.000;2022-08-03T04:35:53;95804.88;;;17.69;100.00
56038;BME280;41907;47.848;9.000;2022-08-03T04:38:22;95811.66;;;17.79;100.00
56038;BME280;41907;47.848;9.000;2022-08-03T04:40:49;95813.41;;;17.71;100.00
56038;BME280;41907;47.848;9.000;2022-08-03T04:43:15;95812.97;;;17.69;100.00
56038;BME280;41907;47.848;9.000;2022-08-03T04:45:42;95812.88;;;17.66;100.00
56038;BME280;41907;47.848;9.000;2022-08-03T04:48:13;95818.38;;;17.69;100.00
56038;BME280;41907;47.848;9.000;2022-08-03T04:50:40;95823.31;;;17.83;100.00
56038;BME280;41907;47.848;9.000;2022-08-03T04:53:06;95824.22;;;18.06;100.00
56038;BME280;41907;47.848;9.000;2022-08-03T04:55:32;95826.06;;;18.41;100.00
56038;BME280;41907;47.848;9.000;2022-08-03T04:57:59;95823.13;;;18.65;97.75
56038;BME280;41907;47.848;9.000;2022-08-03T05:00:25;95826.16;;;19.25;94.31
56038;BME280;41907;47.848;9.000;2022-08-03T05:02:51;95825.72;;;20.21;87.83
56038;BME280;41907;47.848;9.000;2022-08-03T05:05:18;95827.78;;;22.38;75.80
56038;BME280;41907;47.848;9.000;2022-08-03T05:07:43;95825.75;;;24.42;64.77
56038;BME280;41907;47.848;9.000;2022-08-03T05:10:10;95831.59;;;25.83;59.10
56038;BME280;41907;47.848;9.000;2022-08-03T05:12:36;95834.88;;;27.14;53.74
56038;BME280;41907;47.848;9.000;2022-08-03T05:15:01;95844.09;;;28.27;49.86
56038;BME280;41907;47.848;9.000;2022-08-03T05:17:27;95840.31;;;29.20;46.97
56038;BME280;41907;47.848;9.000;2022-08-03T05:19:53;95841.06;;;29.40;46.07
56038;BME280;41907;47.848;9.000;2022-08-03T05:22:19;95839.88;;;29.74;45.04
56038;BME280;41907;47.848;9.000;2022-08-03T05:24:44;95846.16;;;29.90;44.35
56038;BME280;41907;47.848;9.000;2022-08-03T05:27:09;95851.22;;;29.92;44.78
56038;BME280;41907;47.848;9.000;2022-08-03T05:29:41;95845.84;;;30.05;43.98
56038;BME280;41907;47.848;9.000;2022-08-03T05:32:07;95850.69;;;30.29;43.29
56038;BME280;41907;47.848;9.000;2022-08-03T05:34:32;95853.41;;;30.62;42.88
56038;BME280;41907;47.848;9.000;2022-08-03T05:36:58;95855.16;;;30.97;41.39
56038;BME280;41907;47.848;9.000;2022-08-03T05:39:23;95858.66;;;31.14;41.55
56038;BME280;41907;47.848;9.000;2022-08-03T05:41:49;95855.59;;;31.50;40.28
56038;BME280;41907;47.848;9.000;2022-08-03T05:44:14;95855.59;;;31.75;39.78
56038;BME280;41907;47.848;9.000;2022-08-03T05:46:39;95862.09;;;31.56;39.90
56038;BME280;41907;47.848;9.000;2022-08-03T05:49:05;95858.25;;;31.79;39.75
56038;BME280;41907;47.848;9.000;2022-08-03T05:51:30;95860.28;;;32.26;39.30
56038;BME280;41907;47.848;9.000;2022-08-03T05:53:55;95863.22;;;32.66;38.28
56038;BME280;41907;47.848;9.000;2022-08-03T05:56:22;95868.75;;;32.66;37.57
56038;BME280;41907;47.848;9.000;2022-08-03T05:58:51;95868.50;;;33.16;36.66
56038;BME280;41907;47.848;9.000;2022-08-03T06:01:18;95868.84;;;33.40;36.27
56038;BME280;41907;47.848;9.000;2022-08-03T06:03:46;95872.38;;;33.81;35.26
56038;BME280;41907;47.848;9.000;2022-08-03T06:06:12;95874.25;;;33.53;35.73
56038;BME280;41907;47.848;9.000;2022-08-03T06:08:38;95875.22;;;34.08;34.91
56038;BME280;41907;47.848;9.000;2022-08-03T06:11:04;95873.88;;;34.13;35.05
56038;BME280;41907;47.848;9.000;2022-08-03T06:13:30;95872.72;;;34.68;34.00
56038;BME280;41907;47.848;9.000;2022-08-03T06:15:56;95877.94;;;35.12;32.98
56038;BME280;41907;47.848;9.000;2022-08-03T06:18:21;95871.34;;;35.00;33.19
56038;BME280;41907;47.848;9.000;2022-08-03T06:20:48;95874.25;;;35.24;32.96
56038;BME280;41907;47.848;9.000;2022-08-03T06:23:15;95874.47;;;35.54;31.85
56038;BME280;41907;47.848;9.000;2022-08-03T06:25:41;95871.56;;;35.39;32.92
56038;BME280;41907;47.848;9.000;2022-08-03T06:28:06;95883.59;;;35.87;32.23
56038;BME280;41907;47.848;9.000;2022-08-03T06:30:32;95876.28;;;34.96;33.17
56038;BME280;41907;47.848;9.000;2022-08-03T06:32:57;95873.63;;;34.38;35.36
56038;BME280;41907;47.848;9.000;2022-08-03T06:35:23;95872.41;;;35.03;33.93
56038;BME280;41907;47.848;9.000;2022-08-03T06:37:49;95875.91;;;35.82;32.88
56038;BME280;41907;47.848;9.000;2022-08-03T06:40:17;95877.78;;;35.16;33.29
56038;BME280;41907;47.848;9.000;2022-08-03T06:42:44;95867.59;;;35.13;33.24
56038;BME280;41907;47.848;9.000;2022-08-03T06:45:10;95872.53;;;35.18;33.62
56038;BME280;41907;47.848;9.000;2022-08-03T06:47:37;95870.13;;;35.62;33.04
56038;BME280;41907;47.848;9.000;2022-08-03T06:50:04;95877.88;;;36.14;32.57
56038;BME280;41907;47.848;9.000;2022-08-03T06:52:29;95874.28;;;35.99;32.53
56038;BME280;41907;47.848;9.000;2022-08-03T06:54:55;95880.41;;;36.36;31.14
56038;BME280;41907;47.848;9.000;2022-08-03T06:57:21;95870.31;;;36.63;31.84
56038;BME280;41907;47.848;9.000;2022-08-03T06:59:46;95880.31;;;36.31;31.66
56038;BME280;41907;47.848;9.000;2022-08-03T07:02:11;95880.88;;;36.97;30.52
56038;BME280;41907;47.848;9.000;2022-08-03T07:04:38;95884.47;;;36.74;31.82
56038;BME280;41907;47.848;9.000;2022-08-03T07:07:03;95883.19;;;37.13;30.49
56038;BME280;41907;47.848;9.000;2022-08-03T07:09:29;95890.63;;;37.16;30.68
56038;BME280;41907;47.848;9.000;2022-08-03T07:11:54;95891.97;;;37.65;30.08
56038;BME280;41907;47.848;9.000;2022-08-03T07:14:21;95892.06;;;37.56;29.76
56038;BME280;41907;47.848;9.000;2022-08-03T07:16:46;95885.28;;;36.89;31.76
56038;BME280;41907;47.848;9.000;2022-08-03T07:19:12;95898.38;;;37.56;30.28
56038;BME280;41907;47.848;9.000;2022-08-03T07:21:37;95894.00;;;37.99;29.89
56038;BME280;41907;47.848;9.000;2022-08-03T07:24:03;95894.81;;;37.85;29.50
56038;BME280;41907;47.848;9.000;2022-08-03T07:26:28;95890.00;;;37.86;29.57
56038;BME280;41907;47.848;9.000;2022-08-03T07:28:54;95887.16;;;37.80;29.16
56038;BME280;41907;47.848;9.000;2022-08-03T07:31:19;95878.63;;;37.25;30.59
56038;BME280;41907;47.848;9.000;2022-08-03T07:33:44;95877.38;;;36.25;30.42
56038;BME280;41907;47.848;9.000;2022-08-03T07:36:10;95887.25;;;37.42;31.43
56038;BME280;41907;47.848;9.000;2022-08-03T07:38:35;95886.88;;;37.64;29.81
56038;BME280;41907;47.848;9.000;2022-08-03T07:41:02;95890.88;;;37.77;31.09
56038;BME280;41907;47.848;9.000;2022-08-03T07:43:27;95883.44;;;36.62;30.41
56038;BME280;41907;47.848;9.000;2022-08-03T07:45:52;95881.50;;;36.53;31.08
56038;BME280;41907;47.848;9.000;2022-08-03T07:48:18;95877.88;;;35.39;32.69
56038;BME280;41907;47.848;9.000;2022-08-03T07:50:43;95878.56;;;35.25;33.46
56038;BME280;41907;47.848;9.000;2022-08-03T07:53:09;95877.69;;;35.52;34.17
56038;BME280;41907;47.848;9.000;2022-08-03T07:55:34;95875.78;;;35.25;34.53
56038;BME280;41907;47.848;9.000;2022-08-03T07:58:05;95870.56;;;34.72;34.60
56038;BME280;41907;47.848;9.000;2022-08-03T08:00:32;95867.75;;;33.38;37.64
56038;BME280;41907;47.848;9.000;2022-08-03T08:02:58;95870.13;;;33.27;38.43
56038;BME280;41907;47.848;9.000;2022-08-03T08:05:23;95855.88;;;33.59;38.40
56038;BME280;41907;47.848;9.000;2022-08-03T08:07:49;95863.09;;;33.96;37.36
56038;BME280;41907;47.848;9.000;2022-08-03T08:10:14;95863.56;;;34.04;36.62
56038;BME280;41907;47.848;9.000;2022-08-03T08:12:40;95863.59;;;33.42;38.20
56038;BME280;41907;47.848;9.000;2022-08-03T08:15:06;95866.63;;;32.82;39.08
56038;BME280;41907;47.848;9.000;2022-08-03T08:17:49;95862.44;;;31.84;41.68
56038;BME280;41907;47.848;9.000;2022-08-03T08:20:21;95858.44;;;31.85;40.66
56038;BME280;41907;47.848;9.000;2022-08-03T08:22:47;95860.28;;;31.12;42.92
56038;BME280;41907;47.848;9.000;2022-08-03T08:25:12;95861.84;;;31.13;43.52
56038;BME280;41907;47.848;9.000;2022-08-03T08:27:46;95858.47;;;31.72;43.65
56038;BME280;41907;47.848;9.000;2022-08-03T08:30:13;95852.13;;;32.09;40.66
56038;BME280;41907;47.848;9.000;2022-08-03T08:32:38;95853.16;;;30.85;44.49
56038;BME280;41907;47.848;9.000;2022-08-03T08:35:04;95858.31;;;30.54;45.17
56038;BME280;41907;47.848;9.000;2022-08-03T08:37:31;95861.38;;;30.73;44.00
56038;BME280;41907;47.848;9.000;2022-08-03T08:39:57;95862.41;;;31.20;46.82
56038;BME280;41907;47.848;9.000;2022-08-03T08:42:22;95859.03;;;31.79;41.06
56038;BME280;41907;47.848;9.000;2022-08-03T08:44:48;95857.72;;;32.31;41.29
56038;BME280;41907;47.848;9.000;2022-08-03T08:47:14;95860.28;;;32.00;40.38
56038;BME280;41907;47.848;9.000;2022-08-03T08:49:40;95861.75;;;32.18;39.98
56038;BME280;41907;47.848;9.000;2022-08-03T08:52:09;95856.56;;;32.54;39.67
56038;BME280;41907;47.848;9.000;2022-08-03T08:54:38;95853.50;;;32.74;38.99
56038;BME280;41907;47.848;9.000;2022-08-03T08:57:05;95857.56;;;32.69;39.22
56038;BME280;41907;47.848;9.000;2022-08-03T08:59:32;95860.44;;;31.97;39.59
56038;BME280;41907;47.848;9.000;2022-08-03T09:01:59;95854.25;;;31.29;41.29
56038;BME280;41907;47.848;9.000;2022-08-03T09:04:26;95849.53;;;31.68;43.52
56038;BME280;41907;47.848;9.000;2022-08-03T09:06:52;95858.50;;;32.32;39.31
56038;BME280;41907;47.848;9.000;2022-08-03T09:09:17;95859.44;;;32.50;39.54
56038;BME280;41907;47.848;9.000;2022-08-03T09:11:43;95861.16;;;32.57;37.61
56038;BME280;41907;47.848;9.000;2022-08-03T09:14:09;95865.66;;;32.29;38.96
56038;BME280;41907;47.848;9.000;2022-08-03T09:16:35;95860.56;;;32.40;36.56
56038;BME280;41907;47.848;9.000;2022-08-03T09:19:13;95849.41;;;31.46;40.75
56038;BME280;41907;47.848;9.000;2022-08-03T09:21:38;95851.38;;;31.96;41.15
56038;BME280;41907;47.848;9.000;2022-08-03T09:24:05;95856.31;;;32.01;39.11
56038;BME280;41907;47.848;9.000;2022-08-03T09:26:34;95860.78;;;31.86;43.78
56038;BME280;41907;47.848;9.000;2022-08-03T09:29:08;95853.94;;;32.38;43.05
56038;BME280;41907;47.848;9.000;2022-08-03T09:32:01;95851.25;;;32.47;43.06
56038;BME280;41907;47.848;9.000;2022-08-03T09:34:27;95853.91;;;33.16;43.15
56038;BME280;41907;47.848;9.000;2022-08-03T09:36:53;95851.41;;;33.61;40.31
56038;BME280;41907;47.848;9.000;2022-08-03T09:39:23;95853.31;;;33.74;42.22
56038;BME280;41907;47.848;9.000;2022-08-03T09:42:13;95847.44;;;33.72;39.36
56038;BME280;41907;47.848;9.000;2022-08-03T09:44:41;95847.22;;;32.73;39.66
56038;BME280;41907;47.848;9.000;2022-08-03T09:47:08;95857.22;;;32.80;42.22
56038;BME280;41907;47.848;9.000;2022-08-03T09:49:38;95854.38;;;33.36;40.33
56038;BME280;41907;47.848;9.000;2022-08-03T09:52:17;95850.78;;;33.27;41.39
56038;BME280;41907;47.848;9.000;2022-08-03T09:54:46;95851.81;;;33.82;41.02
56038;BME280;41907;47.848;9.000;2022-08-03T09:57:22;95847.31;;;34.24;41.35
56038;BME280;41907;47.848;9.000;2022-08-03T09:59:49;95844.03;;;34.17;38.26
56038;BME280;41907;47.848;9.000;2022-08-03T10:02:25;95846.47;;;33.96;39.59
56038;BME280;41907;47.848;9.000;2022-08-03T10:04:51;95840.56;;;34.34;38.83
56038;BME280;41907;47.848;9.000;2022-08-03T10:07:18;95841.34;;;34.62;37.74
56038;BME280;41907;47.848;9.000;2022-08-03T10:10:02;95834.28;;;33.76;37.48
56038;BME280;41907;47.848;9.000;2022-08-03T10:12:28;95844.59;;;32.57;39.31
56038;BME280;41907;47.848;9.000;2022-08-03T10:14:54;95839.41;;;32.12;40.71
56038;BME280;41907;47.848;9.000;2022-08-03T10:17:20;95839.50;;;31.61;39.74
56038;BME280;41907;47.848;9.000;2022-08-03T10:19:46;95837.25;;;31.18;41.62
56038;BME280;41907;47.848;9.000;2022-08-03T10:22:18;95839.06;;;30.54;42.70
56038;BME280;41907;47.848;9.000;2022-08-03T10:24:52;95830.31;;;31.14;41.61
56038;BME280;41907;47.848;9.000;2022-08-03T10:27:21;95828.03;;;31.63;41.17
56038;BME280;41907;47.848;9.000;2022-08-03T10:29:51;95829.16;;;32.12;41.86
56038;BME280;41907;47.848;9.000;2022-08-03T10:32:25;95835.41;;;32.60;41.09
56038;BME280;41907;47.848;9.000;2022-08-03T10:34:52;95826.28;;;33.16;37.86
56038;BME280;41907;47.848;9.000;2022-08-03T10:37:20;95825.53;;;32.50;40.76
56038;BME280;41907;47.848;9.000;2022-08-03T10:39:48;95829.78;;;32.64;39.93
56038;BME280;41907;47.848;9.000;2022-08-03T10:42:23;95823.72;;;33.21;39.15
56038;BME280;41907;47.848;9.000;2022-08-03T10:44:54;95819.06;;;33.80;38.62
56038;BME280;41907;47.848;9.000;2022-08-03T10:47:20;95818.34;;;34.07;35.65
56038;BME280;41907;47.848;9.000;2022-08-03T10:49:48;95818.84;;;34.24;36.90
56038;BME280;41907;47.848;9.000;2022-08-03T10:52:14;95806.19;;;33.46;37.21
56038;BME280;41907;47.848;9.000;2022-08-03T10:54:42;95812.41;;;33.29;35.94
56038;BME280;41907;47.848;9.000;2022-08-03T10:57:52;95809.66;;;33.29;36.93
56038;BME280;41907;47.848;9.000;2022-08-03T11:00:21;95814.13;;;33.75;37.69
56038;BME280;41907;47.848;9.000;2022-08-03T11:03:01;95809.25;;;33.48;36.10
56038;BME280;41907;47.848;9.000;2022-08-03T11:05:32;95808.16;;;33.77;37.88
56038;BME280;41907;47.848;9.000;2022-08-03T11:08:17;95804.66;;;33.94;36.67
56038;BME280;41907;47.848;9.000;2022-08-03T11:10:42;95802.38;;;34.20;36.92
56038;BME280;41907;47.848;9.000;2022-08-03T11:13:08;95808.91;;;33.77;35.69
56038;BME280;41907;47.848;9.000;2022-08-03T11:15:35;95804.72;;;33.33;36.20
56038;BME280;41907;47.848;9.000;2022-08-03T11:18:09;95805.81;;;32.61;35.97
56038;BME280;41907;47.848;9.000;2022-08-03T11:20:52;95798.16;;;32.08;37.58
56038;BME280;41907;47.848;9.000;2022-08-03T11:28:39;95789.63;;;31.18;38.61
56038;BME280;41907;47.848;9.000;2022-08-03T11:34:11;95785.22;;;31.58;37.53
56038;BME280;41907;47.848;9.000;2022-08-03T11:39:44;95785.91;;;31.12;38.22
56038;BME280;41907;47.848;9.000;2022-08-03T11:44:49;95782.91;;;31.69;38.30
56038;BME280;41907;47.848;9.000;2022-08-03T11:47:15;95786.91;;;31.30;37.87
56038;BME280;41907;47.848;9.000;2022-08-03T11:49:44;95781.38;;;32.03;39.10
56038;BME280;41907;47.848;9.000;2022-08-03T11:52:11;95781.66;;;31.83;36.11
56038;BME280;41907;47.848;9.000;2022-08-03T11:54:38;95782.84;;;31.95;37.24
56038;BME280;41907;47.848;9.000;2022-08-03T11:57:03;95782.22;;;32.47;36.28
56038;BME280;41907;47.848;9.000;2022-08-03T11:59:32;95776.00;;;32.34;35.09
56038;BME280;41907;47.848;9.000;2022-08-03T12:02:12;95773.56;;;32.58;35.46
56038;BME280;41907;47.848;9.000;2022-08-03T12:04:54;95771.13;;;32.38;35.62
56038;BME280;41907;47.848;9.000;2022-08-03T12:07:26;95779.03;;;32.14;33.00
56038;BME280;41907;47.848;9.000;2022-08-03T12:10:10;95773.09;;;31.43;32.85
56038;BME280;41907;47.848;9.000;2022-08-03T12:12:36;95774.06;;;32.22;32.30
56038;BME280;41907;47.848;9.000;2022-08-03T12:15:03;95766.00;;;32.49;30.75
56038;BME280;41907;47.848;9.000;2022-08-03T12:17:36;95765.78;;;32.65;29.85
56038;BME280;41907;47.848;9.000;2022-08-03T12:20:04;95757.38;;;32.91;32.03
56038;BME280;41907;47.848;9.000;2022-08-03T12:22:34;95756.03;;;33.26;31.59
56038;BME280;41907;47.848;9.000;2022-08-03T12:25:02;95765.44;;;32.54;32.66
56038;BME280;41907;47.848;9.000;2022-08-03T12:27:27;95761.81;;;32.23;33.61
56038;BME280;41907;47.848;9.000;2022-08-03T12:29:55;95752.22;;;32.14;32.18
56038;BME280;41907;47.848;9.000;2022-08-03T12:32:21;95757.75;;;32.14;33.29
56038;BME280;41907;47.848;9.000;2022-08-03T12:34:47;95754.81;;;32.52;32.37
56038;BME280;41907;47.848;9.000;2022-08-03T12:37:13;95756.41;;;31.85;35.10
56038;BME280;41907;47.848;9.000;2022-08-03T12:39:39;95749.84;;;31.91;33.71
56038;BME280;41907;47.848;9.000;2022-08-03T12:42:04;95754.75;;;31.87;34.58
56038;BME280;41907;47.848;9.000;2022-08-03T12:44:31;95749.94;;;31.66;34.25
56038;BME280;41907;47.848;9.000;2022-08-03T12:46:58;95752.75;;;31.88;29.92
56038;BME280;41907;47.848;9.000;2022-08-03T12:49:24;95743.91;;;31.93;28.35
56038;BME280;41907;47.848;9.000;2022-08-03T12:54:19;95748.53;;;32.30;30.68
56038;BME280;41907;47.848;9.000;2022-08-03T12:57:04;95749.09;;;32.69;30.87
56038;BME280;41907;47.848;9.000;2022-08-03T12:59:43;95747.16;;;33.00;32.16
56038;BME280;41907;47.848;9.000;2022-08-03T13:02:15;95749.66;;;33.16;31.72
56038;BME280;41907;47.848;9.000;2022-08-03T13:04:41;95753.97;;;32.86;27.31
56038;BME280;41907;47.848;9.000;2022-08-03T13:07:08;95747.50;;;33.11;30.93
56038;BME280;41907;47.848;9.000;2022-08-03T13:09:40;95748.19;;;33.24;29.92
56038;BME280;41907;47.848;9.000;2022-08-03T13:12:15;95747.41;;;33.24;26.88
56038;BME280;41907;47.848;9.000;2022-08-03T13:14:42;95741.34;;;33.07;26.81
56038;BME280;41907;47.848;9.000;2022-08-03T13:17:08;95748.50;;;32.96;26.16
56038;BME280;41907;47.848;9.000;2022-08-03T13:19:34;95745.19;;;32.79;28.53
56038;BME280;41907;47.848;9.000;2022-08-03T13:22:12;95745.47;;;32.72;27.97
56038;BME280;41907;47.848;9.000;2022-08-03T13:24:39;95736.00;;;32.82;30.38
56038;BME280;41907;47.848;9.000;2022-08-03T13:27:05;95736.41;;;33.02;30.39
56038;BME280;41907;47.848;9.000;2022-08-03T13:29:32;95724.06;;;32.94;29.80
56038;BME280;41907;47.848;9.000;2022-08-03T13:31:58;95734.47;;;33.12;30.91